sensor_id;sensor_type;location;lat;lon;timestamp;temperature;humidity
67101;DHT22;54019;61.746;16.106;2023-05-10T00:01:27;21.60;27.10
67101;DHT22;54019;61.746;16.106;2023-05-10T00:03:52;21.60;26.90
67101;DHT22;54019;61.746;16.106;2023-05-10T00:06:20;21.60;26.90
67101;DHT22;54019;61.746;16.106;2023-05-10T00:08:45;21.60;26.30
67101;DHT22;54019;61.746;16.106;2023-05-10T00:11:11;21.60;26.50
67101;DHT22;54019;61.746;16.106;2023-05-10T00:13:37;21.50;26.80
67101;DHT22;54019;61.746;16.106;2023-05-10T00:16:03;21.50;26.30
67101;DHT22;54019;61.746;16.106;2023-05-10T00:18:29;21.50;26.60
67101;DHT22;54019;61.746;16.106;2023-05-10T00:20:55;21.50;26.60
67101;DHT22;54019;61.746;16.106;2023-05-10T00:23:22;21.50;26.10
67101;DHT22;54019;61.746;16.106;2023-05-10T00:25:48;21.50;26.60
67101;DHT22;54019;61.746;16.106;2023-05-10T00:28:13;21.50;26.70
67101;DHT22;54019;61.746;16.106;2023-05-10T00:30:39;21.50;26.30
67101;DHT22;54019;61.746;16.106;2023-05-10T00:33:05;21.50;26.30
67101;DHT22;54019;61.746;16.106;2023-05-10T00:35:31;21.50;26.40
67101;DHT22;54019;61.746;16.106;2023-05-10T00:37:56;21.50;26.30
67101;DHT22;54019;61.746;16.106;2023-05-10T00:40:24;21.50;26.40
67101;DHT22;54019;61.746;16.106;2023-05-10T00:42:49;21.40;26.50
67101;DHT22;54019;61.746;16.106;2023-05-10T00:45:15;21.40;26.60
67101;DHT22;54019;61.746;16.106;2023-05-10T00:47:41;21.40;26.40
67101;DHT22;54019;61.746;16.106;2023-05-10T00:50:08;21.40;26.30
67101;DHT22;54019;61.746;16.106;2023-05-10T00:52:34;21.40;26.60
67101;DHT22;54019;61.746;16.106;2023-05-10T00:55:00;21.40;26.30
67101;DHT22;54019;61.746;16.106;2023-05-10T00:57:27;21.40;26.30
67101;DHT22;54019;61.746;16.106;2023-05-10T00:59:53;21.40;26.70
67101;DHT22;54019;61.746;16.106;2023-05-10T01:02:19;21.40;26.90
67101;DHT22;54019;61.746;16.106;2023-05-10T01:04:45;21.40;26.60
67101;DHT22;54019;61.746;16.106;2023-05-10T01:07:11;21.40;27.40
67101;DHT22;54019;61.746;16.106;2023-05-10T01:09:37;21.30;26.80
67101;DHT22;54019;61.746;16.106;2023-05-10T01:12:03;21.30;27.00
67101;DHT22;54019;61.746;16.106;2023-05-10T01:14:31;21.30;27.10
67101;DHT22;54019;61.746;16.106;2023-05-10T01:16:56;21.30;26.70
67101;DHT22;54019;61.746;16.106;2023-05-10T01:19:24;21.30;26.60
67101;DHT22;54019;61.746;16.106;2023-05-10T01:21:58;21.30;26.30
67101;DHT22;54019;61.746;16.106;2023-05-10T01:24:39;21.40;26.40
67101;DHT22;54019;61.746;16.106;2023-05-10T01:27:20;21.30;27.10
67101;DHT22;54019;61.746;16.106;2023-05-10T01:30:28;21.30;27.30
67101;DHT22;54019;61.746;16.106;2023-05-10T01:33:01;21.30;27.10
67101;DHT22;54019;61.746;16.106;2023-05-10T01:35:39;21.30;27.30
67101;DHT22;54019;61.746;16.106;2023-05-10T01:38:14;21.30;27.20
67101;DHT22;54019;61.746;16.106;2023-05-10T01:40:48;21.30;27.00
67101;DHT22;54019;61.746;16.106;2023-05-10T01:43:22;21.30;26.60
67101;DHT22;54019;61.746;16.106;2023-05-10T01:45:54;21.30;26.70
67101;DHT22;54019;61.746;16.106;2023-05-10T01:48:24;21.20;26.60
67101;DHT22;54019;61.746;16.106;2023-05-10T01:50:52;21.30;26.60
67101;DHT22;54019;61.746;16.106;2023-05-10T01:53:20;21.30;27.00
67101;DHT22;54019;61.746;16.106;2023-05-10T01:55:49;21.30;26.70
67101;DHT22;54019;61.746;16.106;2023-05-10T01:58:28;21.20;27.10
67101;DHT22;54019;61.746;16.106;2023-05-10T02:00:55;21.30;27.00
67101;DHT22;54019;61.746;16.106;2023-05-10T02:03:26;21.40;26.80
67101;DHT22;54019;61.746;16.106;2023-05-10T02:05:54;21.40;26.70
67101;DHT22;54019;61.746;16.106;2023-05-10T02:08:21;21.40;26.70
67101;DHT22;54019;61.746;16.106;2023-05-10T02:10:51;21.40;26.60
67101;DHT22;54019;61.746;16.106;2023-05-10T02:13:18;21.40;26.60
67101;DHT22;54019;61.746;16.106;2023-05-10T02:15:46;21.40;26.60
67101;DHT22;54019;61.746;16.106;2023-05-10T02:18:14;21.40;26.60
67101;DHT22;54019;61.746;16.106;2023-05-10T02:20:42;21.40;26.70
67101;DHT22;54019;61.746;16.106;2023-05-10T02:23:09;21.40;26.80
67101;DHT22;54019;61.746;16.106;2023-05-10T02:25:36;21.30;26.70
67101;DHT22;54019;61.746;16.106;2023-05-10T02:28:05;21.30;26.70
67101;DHT22;54019;61.746;16.106;2023-05-10T02:30:32;21.30;26.50
67101;DHT22;54019;61.746;16.106;2023-05-10T02:32:59;21.30;26.40
67101;DHT22;54019;61.746;16.106;2023-05-10T02:35:26;21.30;26.50
67101;DHT22;54019;61.746;16.106;2023-05-10T02:37:54;21.30;26.20
67101;DHT22;54019;61.746;16.106;2023-05-10T02:40:21;21.30;26.10
67101;DHT22;54019;61.746;16.106;2023-05-10T02:42:50;21.30;26.40
67101;DHT22;54019;61.746;16.106;2023-05-10T02:45:20;21.30;25.90
67101;DHT22;54019;61.746;16.106;2023-05-10T02:47:47;21.30;26.00
67101;DHT22;54019;61.746;16.106;2023-05-10T02:50:13;21.30;26.00
67101;DHT22;54019;61.746;16.106;2023-05-10T02:52:41;21.20;25.90
67101;DHT22;54019;61.746;16.106;2023-05-10T02:55:12;21.20;26.10
67101;DHT22;54019;61.746;16.106;2023-05-10T02:57:43;21.20;26.30
67101;DHT22;54019;61.746;16.106;2023-05-10T03:00:11;21.20;26.20
67101;DHT22;54019;61.746;16.106;2023-05-10T03:02:37;21.20;25.90
67101;DHT22;54019;61.746;16.106;2023-05-10T03:05:03;21.20;26.70
67101;DHT22;54019;61.746;16.106;2023-05-10T03:07:29;21.20;26.40
67101;DHT22;54019;61.746;16.106;2023-05-10T03:09:55;21.20;26.40
67101;DHT22;54019;61.746;16.106;2023-05-10T03:12:38;21.20;26.50
67101;DHT22;54019;61.746;16.106;2023-05-10T03:15:13;21.20;26.40
67101;DHT22;54019;61.746;16.106;2023-05-10T03:17:47;21.20;26.40
67101;DHT22;54019;61.746;16.106;2023-05-10T03:20:20;21.10;26.70
67101;DHT22;54019;61.746;16.106;2023-05-10T03:22:51;21.10;26.40
67101;DHT22;54019;61.746;16.106;2023-05-10T03:25:19;21.10;26.00
67101;DHT22;54019;61.746;16.106;2023-05-10T03:27:48;21.10;26.60
67101;DHT22;54019;61.746;16.106;2023-05-10T03:30:14;21.10;26.50
67101;DHT22;54019;61.746;16.106;2023-05-10T03:32:40;21.10;26.70
67101;DHT22;54019;61.746;16.106;2023-05-10T03:35:07;21.10;26.60
67101;DHT22;54019;61.746;16.106;2023-05-10T03:37:32;21.10;26.90
67101;DHT22;54019;61.746;16.106;2023-05-10T03:39:58;21.10;26.70
67101;DHT22;54019;61.746;16.106;2023-05-10T03:42:24;21.10;26.50
67101;DHT22;54019;61.746;16.106;2023-05-10T03:44:51;21.10;26.60
67101;DHT22;54019;61.746;16.106;2023-05-10T03:47:17;21.10;26.50
67101;DHT22;54019;61.746;16.106;2023-05-10T03:49:43;21.10;26.80
67101;DHT22;54019;61.746;16.106;2023-05-10T03:52:08;21.10;26.50
67101;DHT22;54019;61.746;16.106;2023-05-10T03:54:34;21.10;26.60
67101;DHT22;54019;61.746;16.106;2023-05-10T03:57:00;21.10;26.10
67101;DHT22;54019;61.746;16.106;2023-05-10T03:59:26;21.10;26.30
67101;DHT22;54019;61.746;16.106;2023-05-10T04:01:53;21.10;26.30
67101;DHT22;54019;61.746;16.106;2023-05-10T04:04:19;21.10;26.50
67101;DHT22;54019;61.746;16.106;2023-05-10T04:06:46;21.10;26.40
67101;DHT22;54019;61.746;16.106;2023-05-10T04:09:12;21.10;26.30
67101;DHT22;54019;61.746;16.106;2023-05-10T04:11:38;21.10;26.80
67101;DHT22;54019;61.746;16.106;2023-05-10T04:14:06;21.10;26.90
67101;DHT22;54019;61.746;16.106;2023-05-10T04:16:32;21.10;27.30
67101;DHT22;54019;61.746;16.106;2023-05-10T04:18:59;21.20;27.60
67101;DHT22;54019;61.746;16.106;2023-05-10T04:21:25;21.20;26.60
67101;DHT22;54019;61.746;16.106;2023-05-10T04:23:51;21.30;26.60
67101;DHT22;54019;61.746;16.106;2023-05-10T04:26:17;21.30;26.40
67101;DHT22;54019;61.746;16.106;2023-05-10T04:28:42;21.30;26.50
67101;DHT22;54019;61.746;16.106;2023-05-10T04:31:09;21.30;26.50
67101;DHT22;54019;61.746;16.106;2023-05-10T04:33:35;21.40;26.40
67101;DHT22;54019;61.746;16.106;2023-05-10T04:36:03;21.40;26.40
67101;DHT22;54019;61.746;16.106;2023-05-10T04:38:30;21.40;26.40
67101;DHT22;54019;61.746;16.106;2023-05-10T04:41:04;21.40;26.40
67101;DHT22;54019;61.746;16.106;2023-05-10T04:43:30;21.40;26.80
67101;DHT22;54019;61.746;16.106;2023-05-10T04:45:56;21.40;26.60
67101;DHT22;54019;61.746;16.106;2023-05-10T04:48:22;21.40;26.70
67101;DHT22;54019;61.746;16.106;2023-05-10T04:50:48;21.40;26.70
67101;DHT22;54019;61.746;16.106;2023-05-10T04:53:15;21.40;26.60
67101;DHT22;54019;61.746;16.106;2023-05-10T04:55:41;21.40;26.80
67101;DHT22;54019;61.746;16.106;2023-05-10T04:58:07;21.40;26.70
67101;DHT22;54019;61.746;16.106;2023-05-10T05:00:33;21.40;26.60
67101;DHT22;54019;61.746;16.106;2023-05-10T05:02:59;21.40;26.50
67101;DHT22;54019;61.746;16.106;2023-05-10T05:05:25;21.40;26.50
67101;DHT22;54019;61.746;16.106;2023-05-10T05:07:50;21.40;26.40
67101;DHT22;54019;61.746;16.106;2023-05-10T05:10:18;21.40;26.60
67101;DHT22;54019;61.746;16.106;2023-05-10T05:12:44;21.50;26.90
67101;DHT22;54019;61.746;16.106;2023-05-10T05:15:10;21.50;26.90
67101;DHT22;54019;61.746;16.106;2023-05-10T05:17:36;21.50;27.10
67101;DHT22;54019;61.746;16.106;2023-05-10T05:20:02;21.50;27.80
67101;DHT22;54019;61.746;16.106;2023-05-10T05:22:28;21.60;27.20
67101;DHT22;54019;61.746;16.106;2023-05-10T05:24:54;21.60;27.00
67101;DHT22;54019;61.746;16.106;2023-05-10T05:27:21;21.50;26.80
67101;DHT22;54019;61.746;16.106;2023-05-10T05:29:47;21.50;26.80
67101;DHT22;54019;61.746;16.106;2023-05-10T05:32:13;21.50;26.80
67101;DHT22;54019;61.746;16.106;2023-05-10T05:34:38;21.40;26.50
67101;DHT22;54019;61.746;16.106;2023-05-10T05:37:04;21.40;26.60
67101;DHT22;54019;61.746;16.106;2023-05-10T05:39:30;21.40;26.60
67101;DHT22;54019;61.746;16.106;2023-05-10T05:41:56;21.40;26.80
67101;DHT22;54019;61.746;16.106;2023-05-10T05:44:23;21.50;27.30
67101;DHT22;54019;61.746;16.106;2023-05-10T05:46:49;21.50;27.70
67101;DHT22;54019;61.746;16.106;2023-05-10T05:49:15;21.50;27.10
67101;DHT22;54019;61.746;16.106;2023-05-10T05:51:41;21.50;27.10
67101;DHT22;54019;61.746;16.106;2023-05-10T05:54:07;21.50;27.00
67101;DHT22;54019;61.746;16.106;2023-05-10T05:56:33;21.50;26.90
67101;DHT22;54019;61.746;16.106;2023-05-10T05:58:59;21.60;27.00
67101;DHT22;54019;61.746;16.106;2023-05-10T06:01:26;21.60;26.80
67101;DHT22;54019;61.746;16.106;2023-05-10T06:03:52;21.60;26.60
67101;DHT22;54019;61.746;16.106;2023-05-10T06:06:17;21.50;26.60
67101;DHT22;54019;61.746;16.106;2023-05-10T06:08:43;21.60;26.60
67101;DHT22;54019;61.746;16.106;2023-05-10T06:11:09;21.60;26.70
67101;DHT22;54019;61.746;16.106;2023-05-10T06:13:35;21.60;26.60
67101;DHT22;54019;61.746;16.106;2023-05-10T06:16:01;21.60;26.70
67101;DHT22;54019;61.746;16.106;2023-05-10T06:18:28;21.60;26.60
67101;DHT22;54019;61.746;16.106;2023-05-10T06:20:54;21.70;26.60
67101;DHT22;54019;61.746;16.106;2023-05-10T06:23:20;21.70;26.50
67101;DHT22;54019;61.746;16.106;2023-05-10T06:25:46;21.70;26.30
67101;DHT22;54019;61.746;16.106;2023-05-10T06:28:12;21.70;26.30
67101;DHT22;54019;61.746;16.106;2023-05-10T06:30:37;21.80;26.20
67101;DHT22;54019;61.746;16.106;2023-05-10T06:33:03;21.80;25.90
67101;DHT22;54019;61.746;16.106;2023-05-10T06:35:30;21.80;26.20
67101;DHT22;54019;61.746;16.106;2023-05-10T06:37:56;21.90;26.10
67101;DHT22;54019;61.746;16.106;2023-05-10T06:40:22;21.90;26.60
67101;DHT22;54019;61.746;16.106;2023-05-10T06:42:48;22.00;27.40
67101;DHT22;54019;61.746;16.106;2023-05-10T06:45:14;22.10;26.30
67101;DHT22;54019;61.746;16.106;2023-05-10T06:47:40;22.20;27.30
67101;DHT22;54019;61.746;16.106;2023-05-10T06:50:07;22.20;27.50
67101;DHT22;54019;61.746;16.106;2023-05-10T06:52:34;22.30;27.70
67101;DHT22;54019;61.746;16.106;2023-05-10T06:55:00;22.30;27.40
67101;DHT22;54019;61.746;16.106;2023-05-10T06:57:26;22.40;27.50
67101;DHT22;54019;61.746;16.106;2023-05-10T06:59:52;22.30;27.50
67101;DHT22;54019;61.746;16.106;2023-05-10T07:02:18;22.40;27.40
67101;DHT22;54019;61.746;16.106;2023-05-10T07:04:43;22.40;27.50
67101;DHT22;54019;61.746;16.106;2023-05-10T07:07:09;22.40;27.50
67101;DHT22;54019;61.746;16.106;2023-05-10T07:09:36;22.30;27.00
67101;DHT22;54019;61.746;16.106;2023-05-10T07:12:02;22.40;27.30
67101;DHT22;54019;61.746;16.106;2023-05-10T07:14:28;22.40;27.20
67101;DHT22;54019;61.746;16.106;2023-05-10T07:16:54;22.50;27.40
67101;DHT22;54019;61.746;16.106;2023-05-10T07:19:20;22.50;27.20
67101;DHT22;54019;61.746;16.106;2023-05-10T07:21:45;22.50;27.70
67101;DHT22;54019;61.746;16.106;2023-05-10T07:24:11;22.60;28.00
67101;DHT22;54019;61.746;16.106;2023-05-10T07:26:38;22.60;27.70
67101;DHT22;54019;61.746;16.106;2023-05-10T07:29:04;22.60;27.80
67101;DHT22;54019;61.746;16.106;2023-05-10T07:31:30;22.60;27.40
67101;DHT22;54019;61.746;16.106;2023-05-10T07:33:56;22.60;27.60
67101;DHT22;54019;61.746;16.106;2023-05-10T07:36:21;22.60;26.70
67101;DHT22;54019;61.746;16.106;2023-05-10T07:38:47;22.60;26.00
67101;DHT22;54019;61.746;16.106;2023-05-10T07:41:13;22.50;26.00
67101;DHT22;54019;61.746;16.106;2023-05-10T07:43:40;22.50;26.00
67101;DHT22;54019;61.746;16.106;2023-05-10T07:46:06;22.60;26.10
67101;DHT22;54019;61.746;16.106;2023-05-10T07:48:32;22.60;26.00
67101;DHT22;54019;61.746;16.106;2023-05-10T07:50:57;22.60;26.00
67101;DHT22;54019;61.746;16.106;2023-05-10T07:53:23;22.60;25.90
67101;DHT22;54019;61.746;16.106;2023-05-10T07:55:50;22.70;25.90
67101;DHT22;54019;61.746;16.106;2023-05-10T07:58:16;22.70;25.80
67101;DHT22;54019;61.746;16.106;2023-05-10T08:00:43;22.70;25.50
67101;DHT22;54019;61.746;16.106;2023-05-10T08:03:09;22.70;25.40
67101;DHT22;54019;61.746;16.106;2023-05-10T08:05:35;22.70;25.20
67101;DHT22;54019;61.746;16.106;2023-05-10T08:08:00;22.70;25.00
67101;DHT22;54019;61.746;16.106;2023-05-10T08:10:26;22.70;24.70
67101;DHT22;54019;61.746;16.106;2023-05-10T08:12:52;22.80;25.00
67101;DHT22;54019;61.746;16.106;2023-05-10T08:15:18;22.80;24.70
67101;DHT22;54019;61.746;16.106;2023-05-10T08:17:45;22.80;25.40
67101;DHT22;54019;61.746;16.106;2023-05-10T08:20:11;22.80;24.70
67101;DHT22;54019;61.746;16.106;2023-05-10T08:22:37;22.80;24.50
67101;DHT22;54019;61.746;16.106;2023-05-10T08:25:03;22.70;24.70
67101;DHT22;54019;61.746;16.106;2023-05-10T08:27:29;22.70;24.70
67101;DHT22;54019;61.746;16.106;2023-05-10T08:29:55;22.20;24.60
67101;DHT22;54019;61.746;16.106;2023-05-10T08:32:20;22.20;24.80
67101;DHT22;54019;61.746;16.106;2023-05-10T08:34:47;21.90;24.10
67101;DHT22;54019;61.746;16.106;2023-05-10T08:37:13;21.60;24.60
67101;DHT22;54019;61.746;16.106;2023-05-10T08:39:39;21.40;24.20
67101;DHT22;54019;61.746;16.106;2023-05-10T08:42:05;21.60;24.60
67101;DHT22;54019;61.746;16.106;2023-05-10T08:44:32;21.80;24.40
67101;DHT22;54019;61.746;16.106;2023-05-10T08:46:59;21.90;24.20
67101;DHT22;54019;61.746;16.106;2023-05-10T08:49:27;21.70;24.10
67101;DHT22;54019;61.746;16.106;2023-05-10T08:51:57;21.70;24.30
67101;DHT22;54019;61.746;16.106;2023-05-10T08:54:25;21.80;24.30
67101;DHT22;54019;61.746;16.106;2023-05-10T08:56:51;21.90;24.30
67101;DHT22;54019;61.746;16.106;2023-05-10T08:59:17;21.90;24.20
67101;DHT22;54019;61.746;16.106;2023-05-10T09:01:43;21.90;24.40
67101;DHT22;54019;61.746;16.106;2023-05-10T09:04:10;21.90;24.20
67101;DHT22;54019;61.746;16.106;2023-05-10T09:06:36;22.00;24.10
67101;DHT22;54019;61.746;16.106;2023-05-10T09:09:03;22.10;24.20
67101;DHT22;54019;61.746;16.106;2023-05-10T09:11:29;22.20;24.10
67101;DHT22;54019;61.746;16.106;2023-05-10T09:13:55;22.20;24.00
67101;DHT22;54019;61.746;16.106;2023-05-10T09:16:21;22.30;24.10
67101;DHT22;54019;61.746;16.106;2023-05-10T09:18:47;22.30;24.00
67101;DHT22;54019;61.746;16.106;2023-05-10T09:21:13;22.40;24.00
67101;DHT22;54019;61.746;16.106;2023-05-10T09:23:43;22.40;24.00
67101;DHT22;54019;61.746;16.106;2023-05-10T09:26:10;22.40;24.00
67101;DHT22;54019;61.746;16.106;2023-05-10T09:28:50;22.50;24.00
67101;DHT22;54019;61.746;16.106;2023-05-10T09:31:16;22.50;23.90
67101;DHT22;54019;61.746;16.106;2023-05-10T09:33:44;22.50;24.00
67101;DHT22;54019;61.746;16.106;2023-05-10T09:36:10;22.50;24.10
67101;DHT22;54019;61.746;16.106;2023-05-10T09:38:45;22.50;24.10
67101;DHT22;54019;61.746;16.106;2023-05-10T09:41:17;22.60;24.30
67101;DHT22;54019;61.746;16.106;2023-05-10T09:43:43;22.60;24.20
67101;DHT22;54019;61.746;16.106;2023-05-10T09:46:09;22.70;24.20
67101;DHT22;54019;61.746;16.106;2023-05-10T09:48:35;22.80;24.50
67101;DHT22;54019;61.746;16.106;2023-05-10T09:51:05;22.90;24.60
67101;DHT22;54019;61.746;16.106;2023-05-10T09:53:31;22.80;24.40
67101;DHT22;54019;61.746;16.106;2023-05-10T09:55:57;22.90;24.50
67101;DHT22;54019;61.746;16.106;2023-05-10T09:58:24;22.80;24.50
67101;DHT22;54019;61.746;16.106;2023-05-10T10:00:50;22.80;24.70
67101;DHT22;54019;61.746;16.106;2023-05-10T10:03:19;22.80;24.80
67101;DHT22;54019;61.746;16.106;2023-05-10T10:05:46;22.80;24.80
67101;DHT22;54019;61.746;16.106;2023-05-10T10:08:13;22.80;24.80
67101;DHT22;54019;61.746;16.106;2023-05-10T10:10:40;22.80;24.90
67101;DHT22;54019;61.746;16.106;2023-05-10T10:13:06;22.80;24.90
67101;DHT22;54019;61.746;16.106;2023-05-10T10:15:34;22.90;24.90
67101;DHT22;54019;61.746;16.106;2023-05-10T10:18:00;22.90;24.80
67101;DHT22;54019;61.746;16.106;2023-05-10T10:20:27;22.80;24.50
67101;DHT22;54019;61.746;16.106;2023-05-10T10:22:52;22.90;24.50
67101;DHT22;54019;61.746;16.106;2023-05-10T10:25:19;22.90;24.60
67101;DHT22;54019;61.746;16.106;2023-05-10T10:27:54;22.90;24.50
67101;DHT22;54019;61.746;16.106;2023-05-10T10:30:28;22.80;24.50
67101;DHT22;54019;61.746;16.106;2023-05-10T10:33:17;22.90;24.50
67101;DHT22;54019;61.746;16.106;2023-05-10T10:35:45;22.90;24.40
67101;DHT22;54019;61.746;16.106;2023-05-10T10:38:12;22.90;24.10
67101;DHT22;54019;61.746;16.106;2023-05-10T10:40:38;22.80;23.80
67101;DHT22;54019;61.746;16.106;2023-05-10T10:43:24;22.80;23.90
67101;DHT22;54019;61.746;16.106;2023-05-10T10:46:17;22.80;23.80
67101;DHT22;54019;61.746;16.106;2023-05-10T10:48:49;22.80;23.70
67101;DHT22;54019;61.746;16.106;2023-05-10T10:51:16;22.80;23.70
67101;DHT22;54019;61.746;16.106;2023-05-10T10:53:42;22.80;23.80
67101;DHT22;54019;61.746;16.106;2023-05-10T10:56:12;22.70;23.90
67101;DHT22;54019;61.746;16.106;2023-05-10T10:58:38;22.80;23.50
67101;DHT22;54019;61.746;16.106;2023-05-10T11:01:12;22.80;23.60
67101;DHT22;54019;61.746;16.106;2023-05-10T11:03:38;22.80;24.10
67101;DHT22;54019;61.746;16.106;2023-05-10T11:06:05;22.80;24.40
67101;DHT22;54019;61.746;16.106;2023-05-10T11:08:32;22.80;23.50
67101;DHT22;54019;61.746;16.106;2023-05-10T11:11:06;22.80;23.40
67101;DHT22;54019;61.746;16.106;2023-05-10T11:13:33;22.90;23.70
67101;DHT22;54019;61.746;16.106;2023-05-10T11:16:10;22.90;23.60
67101;DHT22;54019;61.746;16.106;2023-05-10T11:18:37;22.90;23.60
67101;DHT22;54019;61.746;16.106;2023-05-10T11:21:05;22.90;23.50
67101;DHT22;54019;61.746;16.106;2023-05-10T11:23:31;22.90;23.60
67101;DHT22;54019;61.746;16.106;2023-05-10T11:25:59;22.90;23.60
67101;DHT22;54019;61.746;16.106;2023-05-10T11:28:26;22.90;23.60
67101;DHT22;54019;61.746;16.106;2023-05-10T11:30:52;22.90;23.60
67101;DHT22;54019;61.746;16.106;2023-05-10T11:33:19;22.90;23.60
67101;DHT22;54019;61.746;16.106;2023-05-10T11:35:46;22.90;23.60
67101;DHT22;54019;61.746;16.106;2023-05-10T11:38:13;22.90;23.70
67101;DHT22;54019;61.746;16.106;2023-05-10T11:40:40;22.90;23.70
67101;DHT22;54019;61.746;16.106;2023-05-10T11:43:06;22.90;23.60
67101;DHT22;54019;61.746;16.106;2023-05-10T11:45:34;22.90;23.70
67101;DHT22;54019;61.746;16.106;2023-05-10T11:48:00;22.80;24.10
67101;DHT22;54019;61.746;16.106;2023-05-10T11:50:26;22.90;23.60
67101;DHT22;54019;61.746;16.106;2023-05-10T11:52:52;22.80;23.50
67101;DHT22;54019;61.746;16.106;2023-05-10T11:55:20;22.80;24.20
67101;DHT22;54019;61.746;16.106;2023-05-10T11:57:46;22.80;23.50
67101;DHT22;54019;61.746;16.106;2023-05-10T12:00:13;22.90;23.60
67101;DHT22;54019;61.746;16.106;2023-05-10T12:02:39;22.90;23.60
67101;DHT22;54019;61.746;16.106;2023-05-10T12:05:06;22.90;23.80
67101;DHT22;54019;61.746;16.106;2023-05-10T12:07:33;22.80;23.90
67101;DHT22;54019;61.746;16.106;2023-05-10T12:10:09;22.90;23.80
67101;DHT22;54019;61.746;16.106;2023-05-10T12:12:38;22.90;23.80
67101;DHT22;54019;61.746;16.106;2023-05-10T12:15:05;22.90;23.70
67101;DHT22;54019;61.746;16.106;2023-05-10T12:17:31;22.80;23.70
67101;DHT22;54019;61.746;16.106;2023-05-10T12:19:59;22.80;23.80
67101;DHT22;54019;61.746;16.106;2023-05-10T12:22:25;22.70;23.80
67101;DHT22;54019;61.746;16.106;2023-05-10T12:24:50;22.70;23.90
67101;DHT22;54019;61.746;16.106;2023-05-10T12:27:16;22.60;23.40
67101;DHT22;54019;61.746;16.106;2023-05-10T12:29:43;22.50;23.40
67101;DHT22;54019;61.746;16.106;2023-05-10T12:32:09;22.40;22.80
67101;DHT22;54019;61.746;16.106;2023-05-10T12:34:35;22.20;22.70
67101;DHT22;54019;61.746;16.106;2023-05-10T12:37:02;22.10;22.90
67101;DHT22;54019;61.746;16.106;2023-05-10T12:39:38;22.00;22.70
67101;DHT22;54019;61.746;16.106;2023-05-10T12:42:05;22.00;23.00
67101;DHT22;54019;61.746;16.106;2023-05-10T12:44:30;22.00;22.70
67101;DHT22;54019;61.746;16.106;2023-05-10T12:46:57;21.90;22.60
67101;DHT22;54019;61.746;16.106;2023-05-10T12:49:23;21.90;22.30
67101;DHT22;54019;61.746;16.106;2023-05-10T12:51:49;21.70;21.90
67101;DHT22;54019;61.746;16.106;2023-05-10T12:54:15;21.70;22.20
67101;DHT22;54019;61.746;16.106;2023-05-10T12:56:40;21.80;22.00
67101;DHT22;54019;61.746;16.106;2023-05-10T12:59:06;21.70;22.10
67101;DHT22;54019;61.746;16.106;2023-05-10T13:01:32;21.70;22.10
67101;DHT22;54019;61.746;16.106;2023-05-10T13:03:59;21.70;22.40
67101;DHT22;54019;61.746;16.106;2023-05-10T13:06:25;21.80;22.50
67101;DHT22;54019;61.746;16.106;2023-05-10T13:08:51;21.80;22.30
67101;DHT22;54019;61.746;16.106;2023-05-10T13:11:17;21.90;22.60
67101;DHT22;54019;61.746;16.106;2023-05-10T13:13:42;21.90;22.30
67101;DHT22;54019;61.746;16.106;2023-05-10T13:16:08;21.80;22.10
67101;DHT22;54019;61.746;16.106;2023-05-10T13:18:34;21.70;21.90
67101;DHT22;54019;61.746;16.106;2023-05-10T13:21:01;21.60;22.40
67101;DHT22;54019;61.746;16.106;2023-05-10T13:23:27;21.70;22.00
67101;DHT22;54019;61.746;16.106;2023-05-10T13:25:53;21.60;21.70
67101;DHT22;54019;61.746;16.106;2023-05-10T13:28:18;21.60;21.80
67101;DHT22;54019;61.746;16.106;2023-05-10T13:30:44;21.60;21.90
67101;DHT22;54019;61.746;16.106;2023-05-10T13:33:10;21.60;22.00
67101;DHT22;54019;61.746;16.106;2023-05-10T13:35:36;21.60;22.10
67101;DHT22;54019;61.746;16.106;2023-05-10T13:38:03;21.60;21.40
67101;DHT22;54019;61.746;16.106;2023-05-10T13:40:29;21.50;21.00
67101;DHT22;54019;61.746;16.106;2023-05-10T13:42:54;21.60;21.40
67101;DHT22;54019;61.746;16.106;2023-05-10T13:45:20;21.60;21.40
67101;DHT22;54019;61.746;16.106;2023-05-10T13:47:46;21.60;21.50
67101;DHT22;54019;61.746;16.106;2023-05-10T13:50:12;21.70;21.20
67101;DHT22;54019;61.746;16.106;2023-05-10T13:52:38;21.70;21.10
67101;DHT22;54019;61.746;16.106;2023-05-10T13:55:05;21.70;20.50
67101;DHT22;54019;61.746;16.106;2023-05-10T13:57:31;21.80;21.40
67101;DHT22;54019;61.746;16.106;2023-05-10T13:59:57;21.80;22.00
67101;DHT22;54019;61.746;16.106;2023-05-10T14:02:23;22.00;22.20
67101;DHT22;54019;61.746;16.106;2023-05-10T14:04:48;22.00;22.40
67101;DHT22;54019;61.746;16.106;2023-05-10T14:07:14;22.10;22.60
67101;DHT22;54019;61.746;16.106;2023-05-10T14:09:40;22.10;22.70
67101;DHT22;54019;61.746;16.106;2023-05-10T14:12:07;22.20;22.80
67101;DHT22;54019;61.746;16.106;2023-05-10T14:14:33;22.20;23.10
67101;DHT22;54019;61.746;16.106;2023-05-10T14:16:59;22.30;23.20
67101;DHT22;54019;61.746;16.106;2023-05-10T14:19:25;22.30;23.30
67101;DHT22;54019;61.746;16.106;2023-05-10T14:21:50;22.30;23.40
67101;DHT22;54019;61.746;16.106;2023-05-10T14:24:16;22.40;23.50
67101;DHT22;54019;61.746;16.106;2023-05-10T14:26:42;22.40;23.50
67101;DHT22;54019;61.746;16.106;2023-05-10T14:29:09;22.40;23.70
67101;DHT22;54019;61.746;16.106;2023-05-10T14:31:35;22.40;23.90
67101;DHT22;54019;61.746;16.106;2023-05-10T14:34:00;22.40;23.80
67101;DHT22;54019;61.746;16.106;2023-05-10T14:36:26;22.40;23.70
67101;DHT22;54019;61.746;16.106;2023-05-10T14:38:52;22.50;23.90
67101;DHT22;54019;61.746;16.106;2023-05-10T14:41:18;22.50;23.90
67101;DHT22;54019;61.746;16.106;2023-05-10T14:43:44;22.50;23.90
67101;DHT22;54019;61.746;16.106;2023-05-10T14:46:11;22.40;23.90
67101;DHT22;54019;61.746;16.106;2023-05-10T14:48:36;22.40;24.00
67101;DHT22;54019;61.746;16.106;2023-05-10T14:51:02;22.40;24.10
67101;DHT22;54019;61.746;16.106;2023-05-10T14:53:28;22.40;24.00
67101;DHT22;54019;61.746;16.106;2023-05-10T14:55:54;22.40;24.00
67101;DHT22;54019;61.746;16.106;2023-05-10T14:58:20;22.40;23.90
67101;DHT22;54019;61.746;16.106;2023-05-10T15:00:46;22.40;24.00
67101;DHT22;54019;61.746;16.106;2023-05-10T15:03:13;22.50;23.90
67101;DHT22;54019;61.746;16.106;2023-05-10T15:05:39;22.40;24.00
67101;DHT22;54019;61.746;16.106;2023-05-10T15:08:05;22.40;23.90
67101;DHT22;54019;61.746;16.106;2023-05-10T15:10:31;22.50;24.10
67101;DHT22;54019;61.746;16.106;2023-05-10T15:12:57;22.40;24.10
67101;DHT22;54019;61.746;16.106;2023-05-10T15:15:22;22.40;24.10